Time;durP1;ratioP1;P1;durP2;ratioP2;P2;SDS_P1;SDS_P2;PMS_P1;PMS_P2;Temp;Humidity;BMP_temperature;BMP_pressure;BME280_temperature;BME280_humidity;BME280_pressure;Samples;Min_cycle;Max_cycle;Signal;HPM_P1;HPM_P2
2022/07/04 00:00:18;;;;;;;5.40;2.60;;;;;;;16.14;69.61;99701.19;5122513;27;20011;-57
2022/07/04 00:02:44;;;;;;;5.38;2.50;;;;;;;16.10;70.30;99694.72;5115152;27;20059;-57
2022/07/04 00:05:10;;;;;;;4.88;2.50;;;;;;;16.09;69.54;99703.91;5120764;27;20023;-57
2022/07/04 00:07:39;;;;;;;9.35;2.90;;;;;;;15.98;69.40;99696.84;5121232;27;20046;-57
2022/07/04 00:10:05;;;;;;;6.55;2.55;;;;;;;15.91;69.88;99697.09;5113495;27;20039;-57
2022/07/04 00:12:31;;;;;;;7.72;2.53;;;;;;;15.87;70.19;99697.88;5103334;28;20028;-57
2022/07/04 00:14:56;;;;;;;4.93;2.53;;;;;;;15.87;70.38;99703.28;5121710;27;20064;-58
2022/07/04 00:17:21;;;;;;;6.03;2.50;;;;;;;15.92;70.74;99706.00;5120115;27;20402;-57
2022/07/04 00:19:47;;;;;;;9.13;2.70;;;;;;;15.79;70.13;99701.13;5117886;27;20389;-56
2022/07/04 00:22:12;;;;;;;7.03;2.70;;;;;;;15.79;70.68;99707.31;5119865;27;20024;-57
2022/07/04 00:24:38;;;;;;;8.45;2.78;;;;;;;15.81;70.24;99701.66;5114332;27;20020;-57
2022/07/04 00:27:03;;;;;;;9.32;2.80;;;;;;;15.60;71.09;99696.16;5126743;27;20034;-56
2022/07/04 00:29:29;;;;;;;7.70;2.70;;;;;;;15.68;70.79;99687.53;5121144;27;20118;-57
2022/07/04 00:31:55;;;;;;;7.57;2.83;;;;;;;15.74;70.80;99689.19;5123721;27;20039;-57
2022/07/04 00:34:20;;;;;;;5.40;2.22;;;;;;;15.66;71.28;99683.47;5121163;27;20031;-57
2022/07/04 00:36:46;;;;;;;7.85;2.60;;;;;;;15.60;71.67;99674.53;5115942;27;20055;-57
2022/07/04 00:39:11;;;;;;;7.40;2.85;;;;;;;15.56;70.91;99681.53;5117485;27;20038;-57
2022/07/04 00:41:36;;;;;;;6.22;2.70;;;;;;;15.35;71.94;99677.94;5119189;27;20023;-57
2022/07/04 00:44:06;;;;;;;5.05;2.67;;;;;;;15.31;72.74;99674.16;5122622;27;20022;-57
2022/07/04 00:46:32;;;;;;;8.77;2.50;;;;;;;15.26;72.10;99680.31;5117022;27;20028;-57
2022/07/04 00:48:57;;;;;;;5.47;2.50;;;;;;;15.24;72.71;99677.06;5117381;27;20085;-57
2022/07/04 00:51:23;;;;;;;7.63;2.90;;;;;;;15.10;73.28;99681.31;5121057;27;20028;-57
2022/07/04 00:53:49;;;;;;;6.90;2.67;;;;;;;15.06;73.50;99675.63;5120514;27;20030;-57
2022/07/04 00:56:14;;;;;;;4.65;2.60;;;;;;;15.13;73.64;99678.09;5103944;27;20066;-57
2022/07/04 00:58:39;;;;;;;4.65;2.63;;;;;;;15.10;73.55;99681.31;5081260;27;20413;-57
2022/07/04 01:01:05;;;;;;;4.90;2.60;;;;;;;15.02;74.63;99676.41;5112059;27;20418;-57
2022/07/04 01:03:30;;;;;;;5.00;2.67;;;;;;;15.12;74.09;99681.84;5097929;28;20027;-57
2022/07/04 01:05:56;;;;;;;7.18;2.80;;;;;;;15.08;73.69;99680.78;5085178;27;20072;-57
2022/07/04 01:08:21;;;;;;;6.03;2.58;;;;;;;15.06;73.78;99680.22;5078171;28;20024;-57
2022/07/04 01:10:47;;;;;;;7.40;3.10;;;;;;;14.99;74.35;99685.03;5078522;27;20508;-60
2022/07/04 01:13:22;;;;;;;8.05;2.85;;;;;;;14.99;74.10;99691.22;5117671;27;20481;-56
2022/07/04 01:15:47;;;;;;;5.35;2.70;;;;;;;14.88;74.32;99690.34;5105589;27;20027;-58
2022/07/04 01:18:13;;;;;;;5.90;2.97;;;;;;;14.80;74.49;99690.84;5095731;28;20019;-57
2022/07/04 01:20:38;;;;;;;6.97;3.00;;;;;;;14.72;74.43;99691.31;5119093;27;20031;-57
2022/07/04 01:23:04;;;;;;;7.35;3.20;;;;;;;14.72;74.63;99690.50;5114188;27;20038;-57
2022/07/04 01:25:30;;;;;;;9.73;2.90;;;;;;;14.72;74.44;99691.31;5123275;27;20080;-57
2022/07/04 01:27:55;;;;;;;5.60;2.78;;;;;;;14.68;74.70;99695.63;5121210;27;20023;-57
2022/07/04 01:30:21;;;;;;;11.65;3.20;;;;;;;14.64;75.83;99699.88;5117671;27;20096;-57
2022/07/04 01:32:46;;;;;;;5.88;2.60;;;;;;;14.49;77.71;99702.44;5115927;27;20508;-55
2022/07/04 01:35:12;;;;;;;5.97;2.50;;;;;;;14.42;76.92;99706.13;5114396;27;20075;-57
2022/07/04 01:37:38;;;;;;;4.18;2.53;;;;;;;14.38;77.86;99706.94;5122224;27;20477;-57
2022/07/04 01:40:04;;;;;;;6.50;2.75;;;;;;;14.34;77.36;99705.81;5114701;27;20053;-57
2022/07/04 01:42:30;;;;;;;5.18;2.70;;;;;;;14.35;78.36;99712.81;5121819;27;20031;-56
2022/07/04 01:44:55;;;;;;;7.10;2.72;;;;;;;14.25;78.26;99716.22;5118504;27;20027;-57
2022/07/04 01:47:20;;;;;;;6.30;2.78;;;;;;;14.17;78.43;99722.06;5120891;27;20019;-56
2022/07/04 01:49:46;;;;;;;6.60;2.80;;;;;;;14.09;78.11;99722.53;5113426;27;20026;-56
2022/07/04 01:52:11;;;;;;;8.48;2.88;;;;;;;13.92;79.68;99726.13;5119182;27;20023;-55
2022/07/04 01:54:37;;;;;;;4.22;2.70;;;;;;;13.77;79.56;99728.63;5103639;27;20023;-56
2022/07/04 01:57:02;;;;;;;4.57;3.00;;;;;;;14.01;79.53;99726.50;5119298;27;20027;-56
2022/07/04 02:02:12;;;;;;;3.97;2.65;;;;;;;13.72;79.47;99733.97;5114014;27;20107;-56
2022/07/04 02:04:38;;;;;;;4.18;2.50;;;;;;;13.80;80.06;99739.75;5117967;27;20032;-56
2022/07/04 02:07:03;;;;;;;6.00;2.53;;;;;;;13.75;79.44;99738.84;5101544;27;20398;-56
2022/07/04 02:09:30;;;;;;;11.70;2.78;;;;;;;13.81;79.62;99735.97;5112219;28;20027;-56
2022/07/04 02:14:41;;;;;;;7.32;2.80;;;;;;;13.36;80.30;99738.88;5119883;27;20030;-57
2022/07/04 02:17:07;;;;;;;8.80;3.20;;;;;;;13.29;80.05;99738.25;5119414;27;20027;-56
2022/07/04 02:19:32;;;;;;;6.30;2.83;;;;;;;13.14;81.04;99738.81;5121856;28;20075;-56
2022/07/04 02:21:58;;;;;;;6.05;2.95;;;;;;;13.17;81.40;99730.22;5113253;28;20038;-56
2022/07/04 02:24:23;;;;;;;8.80;3.47;;;;;;;13.30;80.67;99739.88;5104964;28;20397;-56
2022/07/04 02:26:49;;;;;;;7.80;3.30;;;;;;;13.24;80.28;99736.25;5120433;28;20027;-55
2022/07/04 02:29:14;;;;;;;7.95;3.13;;;;;;;13.23;80.78;99740.03;5114374;28;20031;-56
2022/07/04 02:31:39;;;;;;;6.18;3.08;;;;;;;13.12;81.19;99740.94;5121032;28;20024;-56
2022/07/04 02:34:05;;;;;;;6.53;3.28;;;;;;;13.14;81.28;99741.50;5098604;28;20092;-55
2022/07/04 02:36:30;;;;;;;6.95;3.15;;;;;;;13.15;81.22;99743.13;5116590;28;20458;-56
2022/07/04 02:38:56;;;;;;;4.13;2.88;;;;;;;13.15;81.32;99743.13;5120846;28;20027;-56
2022/07/04 02:41:21;;;;;;;7.10;3.17;;;;;;;13.04;81.14;99739.47;5117989;28;20269;-56
2022/07/04 02:43:47;;;;;;;4.47;2.90;;;;;;;13.04;81.14;99738.66;5108132;28;20515;-55
2022/07/04 02:46:12;;;;;;;6.70;3.55;;;;;;;12.95;81.67;99746.31;5122085;28;20023;-57
2022/07/04 02:48:37;;;;;;;6.20;3.10;;;;;;;12.78;82.63;99737.44;5117414;28;20024;-56
2022/07/04 02:51:03;;;;;;;5.93;3.08;;;;;;;12.77;82.40;99743.88;5116305;28;20035;-56
2022/07/04 02:53:28;;;;;;;10.32;3.88;;;;;;;12.76;82.61;99744.97;5118295;28;20089;-57
2022/07/04 02:55:54;;;;;;;5.07;2.97;;;;;;;12.85;82.41;99748.84;5098810;28;20035;-57
2022/07/04 02:58:19;;;;;;;8.30;3.10;;;;;;;12.63;82.90;99746.06;5097140;28;20028;-56
2022/07/04 03:00:45;;;;;;;7.18;3.13;;;;;;;12.55;83.27;99749.16;5105061;28;20089;-56
2022/07/04 03:03:10;;;;;;;7.38;3.40;;;;;;;12.69;83.59;99756.66;5113668;28;20035;-56
2022/07/04 03:05:36;;;;;;;8.10;3.42;;;;;;;12.65;83.20;99750.13;5116256;28;20100;-57
2022/07/04 03:08:01;;;;;;;7.97;3.55;;;;;;;12.37;83.80;99748.31;5119205;27;20428;-55
2022/07/04 03:10:26;;;;;;;10.38;3.70;;;;;;;12.40;83.92;99755.88;5098853;27;20370;-56
2022/07/04 03:12:52;;;;;;;6.00;3.47;;;;;;;12.54;83.45;99753.72;5116921;27;20435;-56
2022/07/04 03:15:17;;;;;;;9.77;3.67;;;;;;;12.65;83.03;99746.63;5119728;27;20023;-57
2022/07/04 03:17:43;;;;;;;7.90;3.80;;;;;;;12.70;82.93;99754.78;5122775;27;20034;-57
2022/07/04 03:20:09;;;;;;;7.32;3.63;;;;;;;12.78;82.67;99761.63;5114260;27;20591;-56
2022/07/04 03:22:34;;;;;;;9.30;3.50;;;;;;;12.69;82.77;99759.34;5124265;27;20023;-56
2022/07/04 03:24:59;;;;;;;5.35;3.60;;;;;;;12.63;82.79;99763.03;5123503;27;20492;-57
2022/07/04 03:27:25;;;;;;;7.28;3.25;;;;;;;12.57;83.09;99753.22;5121093;27;20061;-56
2022/07/04 03:29:51;;;;;;;10.40;3.42;;;;;;;12.72;82.57;99758.88;5118757;27;20473;-56
2022/07/04 03:32:16;;;;;;;7.63;3.60;;;;;;;12.72;82.23;99758.88;5119081;27;20031;-56
2022/07/04 03:34:41;;;;;;;7.55;3.75;;;;;;;12.76;82.54;99755.72;5122493;27;20027;-57
2022/07/04 03:37:07;;;;;;;7.88;3.75;;;;;;;13.27;80.35;99772.66;5117472;27;20036;-56
2022/07/04 03:39:32;;;;;;;5.20;3.03;;;;;;;13.86;77.55;99767.56;5107271;27;20031;-62
2022/07/04 03:41:58;;;;;;;6.43;2.90;;;;;;;14.18;75.07;99772.25;5124651;27;20507;-59
2022/07/04 03:44:23;;;;;;;7.68;3.00;;;;;;;15.06;71.11;99770.09;5119870;27;20492;-62
2022/07/04 03:46:48;;;;;;;7.03;2.72;;;;;;;15.57;69.43;99779.59;5120967;27;20039;-59
2022/07/04 03:49:14;;;;;;;6.53;2.65;;;;;;;15.83;67.95;99775.19;5101083;27;20038;-58
2022/07/04 03:51:40;;;;;;;4.35;2.40;;;;;;;15.95;67.38;99773.88;5120214;27;20030;-57
2022/07/04 03:54:05;;;;;;;7.63;2.60;;;;;;;16.34;66.40;99775.34;5123488;27;20500;-56
2022/07/04 03:56:30;;;;;;;5.60;2.45;;;;;;;16.15;66.18;99783.97;5113401;27;20419;-58
2022/07/04 03:58:56;;;;;;;4.50;2.50;;;;;;;16.96;64.44;99792.50;5122035;27;20031;-57
2022/07/04 04:01:21;;;;;;;3.92;2.42;;;;;;;17.12;62.75;99785.19;5119950;27;20039;-56
2022/07/04 04:06:31;;;;;;;5.88;2.30;;;;;;;18.59;57.98;99790.38;5117759;27;20107;-56
2022/07/04 04:08:57;;;;;;;6.50;2.40;;;;;;;19.04;56.44;99791.97;5119489;27;20028;-57
2022/07/04 04:11:22;;;;;;;4.60;2.55;;;;;;;18.85;56.82;99780.19;5116045;27;20031;-56
2022/07/04 04:13:48;;;;;;;4.97;2.33;;;;;;;18.84;57.40;99794.84;5121222;27;20027;-57
2022/07/04 04:16:13;;;;;;;5.55;2.28;;;;;;;19.91;54.28;99790.28;5122454;27;20112;-57
2022/07/04 04:18:38;;;;;;;4.55;2.05;;;;;;;19.92;53.56;99802.78;5117500;27;20035;-57
2022/07/04 04:21:04;;;;;;;7.13;2.13;;;;;;;20.66;51.84;99806.72;5118970;27;20031;-57
2022/07/04 04:23:30;;;;;;;4.93;2.20;;;;;;;20.61;51.46;99803.25;5099824;27;20023;-57
2022/07/04 04:25:55;;;;;;;6.72;2.42;;;;;;;21.06;51.05;99798.19;5100761;27;20489;-57
2022/07/04 04:28:21;;;;;;;5.28;2.20;;;;;;;21.64;48.56;99800.47;5115817;27;20019;-58
2022/07/04 04:30:46;;;;;;;8.23;2.22;;;;;;;21.52;49.50;99797.44;5119061;27;20027;-57
2022/07/04 04:33:12;;;;;;;4.72;2.25;;;;;;;21.55;49.17;99807.72;5111936;27;20458;-57
2022/07/04 04:35:37;;;;;;;6.00;2.30;;;;;;;22.27;47.18;99811.78;5117776;27;20032;-57
2022/07/04 04:38:02;;;;;;;4.20;2.10;;;;;;;22.71;46.36;99816.50;5121651;27;20028;-57
2022/07/04 04:40:28;;;;;;;5.25;2.30;;;;;;;22.60;47.05;99818.69;5118943;27;20050;-57
2022/07/04 04:42:53;;;;;;;5.10;2.30;;;;;;;22.97;45.69;99818.66;5099794;27;20466;-57
2022/07/04 04:45:19;;;;;;;4.18;2.20;;;;;;;21.33;48.27;99817.34;5118815;27;20034;-57
2022/07/04 04:47:44;;;;;;;6.45;2.58;;;;;;;21.42;48.86;99816.72;5118974;27;20045;-57
2022/07/04 04:50:11;;;;;;;6.80;2.20;;;;;;;22.31;47.09;99818.25;5119916;27;20032;-57
2022/07/04 04:52:38;;;;;;;10.40;2.25;;;;;;;22.75;46.07;99827.66;5120170;27;20085;-57
2022/07/04 04:55:04;;;;;;;4.68;2.20;;;;;;;21.70;48.44;99817.56;5120932;27;20020;-57
2022/07/04 04:57:29;;;;;;;5.25;2.40;;;;;;;23.45;45.20;99818.81;5115814;27;20038;-57
2022/07/04 04:59:55;;;;;;;5.10;2.08;;;;;;;24.22;43.71;99824.94;5121990;27;20023;-57
2022/07/04 05:02:20;;;;;;;5.82;2.20;;;;;;;25.60;41.67;99817.78;5119219;27;20039;-57
2022/07/04 05:04:45;;;;;;;5.25;2.17;;;;;;;24.69;41.96;99822.44;5123024;27;20080;-57
2022/07/04 05:07:11;;;;;;;7.68;2.40;;;;;;;25.48;40.33;99831.38;5120872;27;20470;-57
2022/07/04 05:09:36;;;;;;;5.30;2.50;;;;;;;25.05;40.98;99828.72;5118181;27;20434;-57
2022/07/04 05:12:02;;;;;;;9.50;2.35;;;;;;;24.52;42.94;99828.72;5119726;27;20032;-57
2022/07/04 05:14:28;;;;;;;10.63;2.50;;;;;;;23.65;43.07;99833.09;5124546;27;20039;-58
2022/07/04 05:16:54;;;;;;;8.52;2.70;;;;;;;25.95;39.21;99833.34;5117124;27;20031;-57
2022/07/04 05:19:19;;;;;;;10.85;2.50;;;;;;;26.31;38.25;99846.56;5081539;28;20066;-58
2022/07/04 05:21:45;;;;;;;19.38;3.10;;;;;;;24.22;40.86;99843.31;5086860;27;20058;-57
2022/07/04 05:24:11;;;;;;;12.63;2.80;;;;;;;24.84;40.68;99842.28;5104069;28;20122;-58
2022/07/04 05:26:37;;;;;;;11.05;2.72;;;;;;;26.50;38.76;99850.78;5118082;27;20015;-57
2022/07/04 05:29:02;;;;;;;9.55;2.40;;;;;;;26.63;38.54;99849.75;5121609;27;20072;-57
2022/07/04 05:31:28;;;;;;;11.23;2.92;;;;;;;26.51;38.25;99857.88;5114513;27;20032;-57
2022/07/04 05:33:56;;;;;;;22.45;3.17;;;;;;;26.49;38.45;99852.75;5120672;27;20137;-57
2022/07/04 05:36:23;;;;;;;19.30;2.70;;;;;;;26.67;39.49;99850.69;5116144;27;20030;-57
2022/07/04 05:38:48;;;;;;;11.57;2.15;;;;;;;27.16;38.83;99853.69;5118679;27;20039;-57
2022/07/04 05:41:13;;;;;;;7.28;2.30;;;;;;;26.95;39.22;99847.41;5099933;28;20539;-57
2022/07/04 05:43:39;;;;;;;8.55;2.22;;;;;;;27.14;38.65;99850.47;5122312;27;20019;-57
2022/07/04 05:46:04;;;;;;;21.75;3.13;;;;;;;26.53;37.76;99852.88;5115710;27;20034;-57
2022/07/04 05:48:30;;;;;;;16.60;3.10;;;;;;;25.05;41.66;99853.38;5117947;27;20372;-57
2022/07/04 05:50:55;;;;;;;15.80;2.60;;;;;;;25.77;40.72;99849.06;5119937;27;20495;-57
2022/07/04 05:53:20;;;;;;;22.20;3.60;;;;;;;24.97;39.56;99847.59;5104612;28;20024;-56
2022/07/04 05:55:46;;;;;;;21.70;3.20;;;;;;;21.89;46.75;99840.09;5113340;27;20047;-56
2022/07/04 05:58:11;;;;;;;17.75;3.08;;;;;;;24.00;43.32;99842.25;5102965;27;20102;-55
2022/07/04 06:00:39;;;;;;;25.40;3.50;;;;;;;25.79;39.72;99841.28;5121387;27;20475;-57
2022/07/04 06:03:05;;;;;;;26.90;3.42;;;;;;;27.36;37.08;99845.72;5122121;27;20369;-56
2022/07/04 06:05:30;;;;;;;21.70;3.25;;;;;;;25.50;38.71;99845.56;5122029;27;20027;-55
2022/07/04 06:07:56;;;;;;;20.73;2.83;;;;;;;25.20;39.45;99836.44;5116308;27;20031;-56
2022/07/04 06:10:22;;;;;;;19.92;2.83;;;;;;;27.31;35.65;99853.06;5118989;27;20385;-58
2022/07/04 06:12:47;;;;;;;21.10;2.65;;;;;;;26.66;37.03;99843.59;5115854;27;20477;-55
2022/07/04 06:15:12;;;;;;;21.27;2.80;;;;;;;26.35;36.67;99852.19;5111869;27;20671;-56
2022/07/04 06:17:38;;;;;;;19.55;3.05;;;;;;;23.31;41.92;99837.22;5120007;27;20042;-56
2022/07/04 06:20:04;;;;;;;20.00;2.55;;;;;;;24.81;39.34;99838.25;5119535;27;20530;-56
2022/07/04 06:22:49;;;;;;;11.98;2.50;;;;;;;27.43;36.58;99845.97;5121287;28;20037;-56
2022/07/04 06:25:18;;;;;;;16.02;2.95;;;;;;;26.41;36.17;99848.09;5114413;28;20036;-56
2022/07/04 06:27:44;;;;;;;;;;;;;;;28.10;34.00;99852.94;5101636;28;20024;-56
2022/07/04 06:30:10;;;;;;;16.25;2.88;;;;;;;28.85;33.17;99854.44;5116809;28;19922;-56
2022/07/04 06:32:45;;;;;;;15.73;3.03;;;;;;;27.87;33.70;99854.56;5113736;28;20046;-56
2022/07/04 06:37:55;;;;;;;13.43;2.53;;;;;;;27.88;35.38;99853.41;5098748;28;20042;-56
2022/07/04 06:40:21;;;;;;;12.07;2.75;;;;;;;29.04;33.90;99851.84;5114122;28;20020;-56
2022/07/04 06:42:46;;;;;;;11.13;2.38;;;;;;;28.63;33.43;99843.94;5116852;27;20124;-56
2022/07/04 06:45:11;;;;;;;12.10;2.30;;;;;;;28.35;34.54;99852.94;5127732;27;20251;-55
2022/07/04 06:47:37;;;;;;;17.90;2.75;;;;;;;29.08;32.93;99846.47;5122612;27;20057;-57
2022/07/04 06:50:02;;;;;;;14.30;2.70;;;;;;;28.64;33.19;99849.13;5125535;27;20389;-56
2022/07/04 06:52:28;;;;;;;20.67;2.80;;;;;;;27.69;34.22;99845.69;5124509;27;20025;-56
2022/07/04 06:54:53;;;;;;;13.63;2.60;;;;;;;28.22;34.30;99837.56;5118687;27;20026;-56
2022/07/04 06:57:19;;;;;;;18.13;2.90;;;;;;;28.36;33.59;99840.78;5117648;27;20040;-56
2022/07/04 06:59:44;;;;;;;15.75;2.80;;;;;;;28.74;33.72;99845.06;5121291;27;20371;-56
2022/07/04 07:02:09;;;;;;;9.82;2.20;;;;;;;29.19;32.06;99841.25;5123233;27;20039;-58
2022/07/04 07:04:35;;;;;;;13.55;2.28;;;;;;;30.23;31.12;99836.38;5117964;27;20277;-56
2022/07/04 07:07:00;;;;;;;14.50;2.40;;;;;;;28.00;34.78;99838.84;5123761;27;20665;-56
2022/07/04 07:09:26;;;;;;;10.77;2.40;;;;;;;29.31;32.55;99835.66;5101732;27;20343;-56
2022/07/04 07:11:51;;;;;;;12.60;2.60;;;;;;;30.16;31.69;99830.69;5118064;27;20031;-56
2022/07/04 07:14:16;;;;;;;11.38;2.30;;;;;;;30.51;31.27;99833.47;5117064;27;20019;-56
2022/07/04 07:16:42;;;;;;;12.63;2.28;;;;;;;30.65;30.73;99835.75;5119905;27;20469;-61
2022/07/04 07:19:07;;;;;;;16.83;2.33;;;;;;;29.75;31.46;99824.56;5122379;27;20028;-56
2022/07/04 07:21:33;;;;;;;18.02;2.45;;;;;;;29.42;32.05;99830.41;5121824;27;20376;-56
2022/07/04 07:24:00;;;;;;;6.25;2.10;;;;;;;29.19;31.51;99831.00;5119182;27;20023;-57
2022/07/04 07:26:25;;;;;;;9.48;2.35;;;;;;;28.13;33.72;99824.72;5104692;27;20024;-61
2022/07/04 07:28:51;;;;;;;9.40;2.60;;;;;;;24.80;38.42;99822.13;5127809;27;20055;-57
2022/07/04 07:31:16;;;;;;;10.18;2.30;;;;;;;24.40;38.59;99819.50;5120015;27;20042;-56
2022/07/04 07:33:42;;;;;;;9.40;2.20;;;;;;;26.95;35.92;99819.88;5122848;27;20027;-56
2022/07/04 07:36:07;;;;;;;9.48;2.00;;;;;;;28.17;32.33;99824.81;5123909;27;20023;-57
2022/07/04 07:38:33;;;;;;;11.80;2.22;;;;;;;29.23;31.23;99814.53;5118401;27;20035;-56
2022/07/04 07:40:58;;;;;;;8.95;2.30;;;;;;;28.02;33.27;99814.50;5117028;27;20031;-57
2022/07/04 07:43:24;;;;;;;9.10;2.22;;;;;;;30.37;30.41;99821.28;5118602;27;20028;-57
2022/07/04 07:45:49;;;;;;;8.77;2.00;;;;;;;30.39;31.18;99822.53;5123583;27;20031;-57
2022/07/04 07:48:15;;;;;;;12.45;2.75;;;;;;;30.59;29.96;99812.28;5122225;27;20038;-57
2022/07/04 07:50:40;;;;;;;13.43;2.20;;;;;;;30.84;29.73;99817.56;5122017;27;20044;-55
2022/07/04 07:53:07;;;;;;;10.57;1.92;;;;;;;30.17;29.98;99810.16;5120937;27;20031;-55
2022/07/04 07:55:32;;;;;;;11.68;2.10;;;;;;;29.40;31.02;99814.19;5119219;27;20047;-55
2022/07/04 07:57:58;;;;;;;12.43;2.17;;;;;;;28.16;32.29;99815.75;5119714;27;20479;-56
2022/07/04 08:00:24;;;;;;;6.22;2.30;;;;;;;28.51;32.07;99812.50;5118856;27;20382;-56
2022/07/04 08:05:33;;;;;;;12.85;2.20;;;;;;;30.46;30.16;99810.84;5119759;27;20134;-57
2022/07/04 08:07:59;;;;;;;6.82;1.70;;;;;;;30.39;28.93;99800.41;5104749;27;20024;-58
2022/07/04 08:10:25;;;;;;;11.88;2.13;;;;;;;30.55;28.98;99802.31;5119665;27;20165;-57
2022/07/04 08:12:51;;;;;;;12.20;1.73;;;;;;;30.12;29.34;99799.38;5124755;27;20026;-57
2022/07/04 08:15:17;;;;;;;9.38;2.00;;;;;;;29.52;29.46;99791.22;5122714;27;20033;-57
2022/07/04 08:17:42;;;;;;;9.23;2.00;;;;;;;28.29;31.77;99799.22;5120503;27;20019;-57
2022/07/04 08:20:08;;;;;;;11.77;2.53;;;;;;;26.49;34.23;99796.97;5111278;27;20023;-57
2022/07/04 08:22:34;;;;;;;7.07;1.73;;;;;;;25.35;36.14;99793.97;5117778;27;20160;-57
2022/07/04 08:24:59;;;;;;;9.32;1.98;;;;;;;25.16;36.15;99797.91;5118117;27;20032;-56
2022/07/04 08:27:25;;;;;;;10.63;1.85;;;;;;;24.46;37.45;99796.31;5118586;27;20389;-57
2022/07/04 08:29:51;;;;;;;11.75;2.08;;;;;;;25.99;34.02;99793.09;5116218;27;20024;-57
2022/07/04 08:32:16;;;;;;;6.55;1.67;;;;;;;27.61;33.51;99792.34;5120568;27;20023;-56
2022/07/04 08:34:42;;;;;;;9.23;1.80;;;;;;;28.93;31.46;99789.25;5115427;27;20027;-56
2022/07/04 08:37:08;;;;;;;5.63;2.05;;;;;;;26.78;32.58;99788.63;5100927;28;20038;-57
2022/07/04 08:39:34;;;;;;;5.95;2.08;;;;;;;26.00;34.46;99786.47;5121376;27;20031;-57
2022/07/04 08:42:02;;;;;;;6.32;1.65;;;;;;;27.15;33.83;99796.22;5120281;27;20014;-57
2022/07/04 08:44:28;;;;;;;10.73;2.05;;;;;;;27.74;31.07;99791.19;5103575;27;20027;-57
2022/07/04 08:46:53;;;;;;;4.75;1.90;;;;;;;27.67;31.88;99795.66;5118354;27;20107;-57
2022/07/04 08:49:21;;;;;;;8.68;1.88;;;;;;;28.03;32.02;99792.13;5102991;27;20032;-57
2022/07/04 08:52:00;;;;;;;6.18;1.65;;;;;;;29.21;28.71;99789.25;5098658;27;20352;-57
2022/07/04 08:59:55;;;;;;;7.45;1.80;;;;;;;29.40;27.96;99797.63;5119913;27;20087;-57
2022/07/04 09:02:21;;;;;;;8.80;2.00;;;;;;;29.71;27.85;99793.31;5099505;28;20039;-57
2022/07/04 09:04:46;;;;;;;12.00;2.13;;;;;;;29.56;28.36;99794.88;5101499;27;20027;-56
2022/07/04 09:07:12;;;;;;;9.45;1.85;;;;;;;26.98;30.14;99794.44;5120757;27;20027;-57
2022/07/04 09:09:38;;;;;;;10.18;1.92;;;;;;;27.70;31.33;99789.47;5117141;27;20315;-57
2022/07/04 09:12:05;;;;;;;9.85;1.77;;;;;;;26.64;31.99;99786.19;5092751;27;20089;-56
2022/07/04 09:14:30;;;;;;;14.25;2.25;;;;;;;27.64;31.46;99782.59;5119374;27;20061;-56
2022/07/04 09:16:56;;;;;;;11.20;2.10;;;;;;;28.24;30.41;99780.16;5081060;27;20023;-57
2022/07/04 09:19:22;;;;;;;4.45;1.55;;;;;;;29.93;27.31;99785.50;5101107;28;20035;-57
2022/07/04 09:21:48;;;;;;;6.38;1.60;;;;;;;29.46;27.66;99784.38;5074235;27;20028;-56
2022/07/04 09:24:13;;;;;;;6.05;1.58;;;;;;;28.87;28.53;99785.94;5117114;27;20023;-56
2022/07/04 09:26:46;;;;;;;12.68;2.00;;;;;;;29.17;27.80;99789.16;5125248;27;20458;-56
2022/07/04 09:29:11;;;;;;;7.78;1.70;;;;;;;29.89;27.56;99786.25;5098477;28;20423;-57
2022/07/04 09:31:37;;;;;;;8.07;1.88;;;;;;;29.33;25.93;99791.13;5116021;27;20027;-56
2022/07/04 09:34:03;;;;;;;4.97;1.90;;;;;;;28.80;26.69;99788.50;5118333;27;20031;-64
2022/07/04 09:36:33;;;;;;;7.90;1.63;;;;;;;25.83;29.85;99787.31;5099062;28;20019;-57
2022/07/04 09:39:14;;;;;;;8.48;2.05;;;;;;;23.25;34.04;99783.81;5116229;27;20022;-57
2022/07/04 09:42:15;;;;;;;7.30;2.00;;;;;;;23.52;35.50;99779.28;5118198;27;20019;-57
2022/07/04 09:44:44;;;;;;;6.13;1.63;;;;;;;26.94;31.00;99769.59;4994970;28;20575;-57
2022/07/04 09:47:23;;;;;;;9.85;1.83;;;;;;;28.55;29.28;99765.72;5098972;27;20043;-56
2022/07/04 09:50:07;;;;;;;5.72;1.77;;;;;;;28.48;29.36;99769.09;5119159;27;20050;-56
2022/07/04 09:52:44;;;;;;;11.77;2.08;;;;;;;26.12;32.55;99772.00;5096202;27;20020;-56
2022/07/04 09:55:09;;;;;;;12.30;1.90;;;;;;;26.60;32.32;99767.97;5101605;27;20030;-56
2022/07/04 09:57:35;;;;;;;10.70;2.00;;;;;;;28.11;30.80;99763.66;5112103;27;20023;-56
2022/07/04 10:00:23;;;;;;;9.57;1.80;;;;;;;27.37;30.54;99759.28;5101394;27;20035;-56
2022/07/04 10:02:49;;;;;;;5.57;1.75;;;;;;;27.52;30.62;99755.84;5115564;27;20682;-55
2022/07/04 10:05:23;;;;;;;10.90;2.00;;;;;;;28.35;30.41;99749.00;5118836;27;20034;-56
2022/07/04 10:07:48;;;;;;;10.30;2.10;;;;;;;25.49;33.97;99744.41;5121874;27;20031;-56
2022/07/04 10:10:25;;;;;;;11.73;2.10;;;;;;;25.10;33.36;99744.31;5118778;27;20027;-56
2022/07/04 10:12:55;;;;;;;7.13;1.70;;;;;;;24.96;32.98;99736.31;5102483;28;20437;-56
2022/07/04 10:15:21;;;;;;;12.13;2.03;;;;;;;25.67;33.94;99731.38;5122073;27;20062;-55
2022/07/04 10:17:46;;;;;;;13.43;2.30;;;;;;;26.55;30.80;99735.19;5117231;27;20036;-54
2022/07/04 10:20:12;;;;;;;6.47;1.90;;;;;;;26.52;32.09;99733.09;5099060;28;20073;-56
2022/07/04 10:22:37;;;;;;;6.63;2.13;;;;;;;25.47;31.98;99733.75;5095952;28;20027;-56
2022/07/04 10:25:04;;;;;;;8.23;1.98;;;;;;;26.92;30.69;99736.13;5116660;28;20027;-56
2022/07/04 10:27:30;;;;;;;13.20;1.92;;;;;;;25.58;33.09;99732.22;5114784;28;20088;-56
2022/07/04 10:29:56;;;;;;;6.97;1.98;;;;;;;24.42;34.51;99724.91;5119183;28;20023;-55
2022/07/04 10:32:21;;;;;;;13.23;2.05;;;;;;;24.99;33.48;99721.13;5097874;28;20031;-56
2022/07/04 10:34:46;;;;;;;12.10;2.65;;;;;;;25.36;32.52;99729.72;5069996;28;20057;-54
2022/07/04 10:37:13;;;;;;;6.47;1.52;;;;;;;25.83;34.08;99726.91;5119291;28;20060;-55
2022/07/04 10:39:38;;;;;;;14.93;2.00;;;;;;;26.43;31.68;99736.72;5115917;28;20038;-55
2022/07/04 10:42:06;;;;;;;4.38;1.67;;;;;;;27.72;30.45;99732.91;5119232;28;20027;-55
2022/07/04 10:44:37;;;;;;;8.90;1.63;;;;;;;24.41;34.23;99725.19;5115750;28;20076;-56
2022/07/04 10:47:03;;;;;;;8.77;1.58;;;;;;;26.67;31.95;99733.28;5115635;28;20073;-55
2022/07/04 10:49:28;;;;;;;7.63;1.73;;;;;;;26.60;32.69;99737.72;5100314;28;20035;-55
2022/07/04 10:52:08;;;;;;;6.18;1.90;;;;;;;24.90;33.53;99729.38;5113954;28;20031;-56
2022/07/04 10:54:34;;;;;;;9.25;1.70;;;;;;;24.97;33.33;99728.88;5099311;28;20503;-54
2022/07/04 10:57:19;;;;;;;9.02;2.05;;;;;;;23.97;35.24;99732.59;5117631;28;20042;-54
2022/07/04 10:59:55;;;;;;;8.45;1.90;;;;;;;22.72;36.83;99735.38;5107144;28;20286;-54
2022/07/04 11:02:22;;;;;;;7.30;1.80;;;;;;;23.45;35.54;99731.28;5124359;28;20421;-55
2022/07/04 11:05:01;;;;;;;9.27;1.95;;;;;;;25.49;33.73;99733.41;5115693;28;20050;-55
2022/07/04 11:07:35;;;;;;;12.70;2.35;;;;;;;26.16;32.89;99734.47;5114550;28;20027;-57
2022/07/04 11:12:56;;;;;;;3.65;1.60;;;;;;;24.11;35.86;99733.25;5122001;28;20735;-56
2022/07/04 11:15:45;;;;;;;5.15;1.67;;;;;;;24.49;35.09;99719.78;5118080;28;20031;-55
2022/07/04 11:18:14;;;;;;;6.28;1.60;;;;;;;24.41;35.15;99725.19;5103088;28;20035;-55
2022/07/04 11:20:44;;;;;;;6.20;1.58;;;;;;;25.06;33.74;99732.41;5098841;28;20035;-55
2022/07/04 11:23:16;;;;;;;10.60;3.38;;;;;;;25.24;36.00;99727.69;5116219;28;20028;-56
2022/07/04 11:25:43;;;;;;;6.03;1.50;;;;;;;26.21;32.00;99731.56;5116174;28;20039;-55
2022/07/04 11:28:25;;;;;;;12.00;2.25;;;;;;;26.41;31.66;99722.50;5116145;28;20023;-56
2022/07/04 11:30:54;;;;;;;16.55;2.10;;;;;;;27.08;31.12;99720.56;5123123;27;20039;-55
2022/07/04 11:33:21;;;;;;;8.68;1.88;;;;;;;27.04;31.85;99724.34;5102586;27;20110;-55
2022/07/04 11:36:09;;;;;;;8.52;1.83;;;;;;;26.84;32.72;99715.81;5116752;27;20032;-55
2022/07/04 11:38:53;;;;;;;11.07;1.90;;;;;;;27.43;31.84;99716.59;5116031;27;20027;-55
2022/07/04 11:47:14;;;;;;;5.05;1.73;;;;;;;27.36;31.71;99708.13;5117857;27;20035;-55
2022/07/04 11:49:53;;;;;;;7.22;1.90;;;;;;;27.49;30.59;99713.28;5102153;27;20533;-56
2022/07/04 11:52:30;;;;;;;8.60;1.83;;;;;;;27.61;31.37;99712.50;5109892;27;20417;-57
2022/07/04 11:54:57;;;;;;;10.32;2.10;;;;;;;27.17;31.50;99712.22;5083663;27;20026;-54
2022/07/04 11:57:24;;;;;;;9.82;1.88;;;;;;;26.71;31.47;99711.44;5117432;27;20307;-54